sensor_id;sensor_type;location;lat;lon;timestamp;P1;durP1;ratioP1;P2;durP2;ratioP2
78426;SDS011;67722;50.204;8.570;2023-12-07T00:01:02;0.53;;;0.53;;
78426;SDS011;67722;50.204;8.570;2023-12-07T00:03:27;0.88;;;0.73;;
78426;SDS011;67722;50.204;8.570;2023-12-07T00:05:52;1.00;;;0.27;;
78426;SDS011;67722;50.204;8.570;2023-12-07T00:08:18;0.70;;;0.68;;
78426;SDS011;67722;50.204;8.570;2023-12-07T00:10:43;2.40;;;1.00;;
78426;SDS011;67722;50.204;8.570;2023-12-07T00:13:08;2.37;;;0.40;;
78426;SDS011;67722;50.204;8.570;2023-12-07T00:15:34;1.10;;;1.02;;
78426;SDS011;67722;50.204;8.570;2023-12-07T00:17:59;0.23;;;0.23;;
78426;SDS011;67722;50.204;8.570;2023-12-07T00:20:25;0.45;;;0.43;;
78426;SDS011;67722;50.204;8.570;2023-12-07T00:22:51;0.52;;;0.43;;
78426;SDS011;67722;50.204;8.570;2023-12-07T00:25:16;0.88;;;0.70;;
78426;SDS011;67722;50.204;8.570;2023-12-07T00:27:41;0.70;;;0.60;;
78426;SDS011;67722;50.204;8.570;2023-12-07T00:30:07;1.83;;;1.03;;
78426;SDS011;67722;50.204;8.570;2023-12-07T00:32:33;1.13;;;1.05;;
78426;SDS011;67722;50.204;8.570;2023-12-07T00:34:58;0.87;;;0.17;;
78426;SDS011;67722;50.204;8.570;2023-12-07T00:37:23;0.80;;;0.63;;
78426;SDS011;67722;50.204;8.570;2023-12-07T00:39:49;1.05;;;0.70;;
78426;SDS011;67722;50.204;8.570;2023-12-07T00:42:14;0.53;;;0.37;;
78426;SDS011;67722;50.204;8.570;2023-12-07T00:44:40;0.53;;;0.53;;
78426;SDS011;67722;50.204;8.570;2023-12-07T00:47:05;1.15;;;1.05;;
78426;SDS011;67722;50.204;8.570;2023-12-07T00:49:31;0.27;;;0.27;;
78426;SDS011;67722;50.204;8.570;2023-12-07T00:51:56;0.77;;;0.60;;
78426;SDS011;67722;50.204;8.570;2023-12-07T00:54:21;1.20;;;1.10;;
78426;SDS011;67722;50.204;8.570;2023-12-07T00:56:46;0.50;;;0.50;;
78426;SDS011;67722;50.204;8.570;2023-12-07T00:59:12;2.55;;;0.77;;
78426;SDS011;67722;50.204;8.570;2023-12-07T01:01:37;0.90;;;0.70;;
78426;SDS011;67722;50.204;8.570;2023-12-07T01:04:03;0.73;;;0.73;;
78426;SDS011;67722;50.204;8.570;2023-12-07T01:06:30;0.73;;;0.70;;
78426;SDS011;67722;50.204;8.570;2023-12-07T01:08:55;0.37;;;0.37;;
78426;SDS011;67722;50.204;8.570;2023-12-07T01:11:21;0.05;;;0.05;;
78426;SDS011;67722;50.204;8.570;2023-12-07T01:13:46;0.13;;;0.13;;
78426;SDS011;67722;50.204;8.570;2023-12-07T01:16:11;1.07;;;0.97;;
78426;SDS011;67722;50.204;8.570;2023-12-07T01:18:37;0.63;;;0.27;;
78426;SDS011;67722;50.204;8.570;2023-12-07T01:21:02;0.60;;;0.60;;
78426;SDS011;67722;50.204;8.570;2023-12-07T01:23:28;0.45;;;0.45;;
78426;SDS011;67722;50.204;8.570;2023-12-07T01:25:53;1.30;;;0.90;;
78426;SDS011;67722;50.204;8.570;2023-12-07T01:28:18;0.45;;;0.45;;
78426;SDS011;67722;50.204;8.570;2023-12-07T01:30:44;1.17;;;0.50;;
78426;SDS011;67722;50.204;8.570;2023-12-07T01:33:09;0.20;;;0.20;;
78426;SDS011;67722;50.204;8.570;2023-12-07T01:35:34;0.10;;;0.10;;
78426;SDS011;67722;50.204;8.570;2023-12-07T01:38:00;0.65;;;0.30;;
78426;SDS011;67722;50.204;8.570;2023-12-07T01:40:25;0.77;;;0.50;;
78426;SDS011;67722;50.204;8.570;2023-12-07T01:42:51;0.37;;;0.23;;
78426;SDS011;67722;50.204;8.570;2023-12-07T01:45:17;0.20;;;0.10;;
78426;SDS011;67722;50.204;8.570;2023-12-07T01:47:42;1.70;;;0.25;;
78426;SDS011;67722;50.204;8.570;2023-12-07T01:50:08;1.20;;;0.60;;
78426;SDS011;67722;50.204;8.570;2023-12-07T01:52:35;0.52;;;0.52;;
78426;SDS011;67722;50.204;8.570;2023-12-07T01:55:02;0.10;;;0.10;;
78426;SDS011;67722;50.204;8.570;2023-12-07T01:57:28;0.80;;;0.60;;
78426;SDS011;67722;50.204;8.570;2023-12-07T01:59:54;0.55;;;0.55;;
78426;SDS011;67722;50.204;8.570;2023-12-07T02:02:19;0.30;;;0.20;;
78426;SDS011;67722;50.204;8.570;2023-12-07T02:04:44;0.47;;;0.47;;
78426;SDS011;67722;50.204;8.570;2023-12-07T02:07:10;0.30;;;0.30;;
78426;SDS011;67722;50.204;8.570;2023-12-07T02:09:35;1.35;;;0.60;;
78426;SDS011;67722;50.204;8.570;2023-12-07T02:12:01;0.53;;;0.47;;
78426;SDS011;67722;50.204;8.570;2023-12-07T02:14:26;0.22;;;0.20;;
78426;SDS011;67722;50.204;8.570;2023-12-07T02:17:01;1.20;;;0.47;;
78426;SDS011;67722;50.204;8.570;2023-12-07T02:19:49;0.15;;;0.13;;
78426;SDS011;67722;50.204;8.570;2023-12-07T02:22:18;0.25;;;0.22;;
78426;SDS011;67722;50.204;8.570;2023-12-07T02:25:09;0.60;;;0.38;;
78426;SDS011;67722;50.204;8.570;2023-12-07T02:27:34;0.77;;;0.70;;
78426;SDS011;67722;50.204;8.570;2023-12-07T02:30:00;0.13;;;0.13;;
78426;SDS011;67722;50.204;8.570;2023-12-07T02:32:25;0.10;;;0.10;;
78426;SDS011;67722;50.204;8.570;2023-12-07T02:34:50;2.67;;;0.20;;
78426;SDS011;67722;50.204;8.570;2023-12-07T02:37:16;0.20;;;0.20;;
78426;SDS011;67722;50.204;8.570;2023-12-07T02:39:42;0.10;;;0.00;;
78426;SDS011;67722;50.204;8.570;2023-12-07T02:42:07;0.20;;;0.20;;
78426;SDS011;67722;50.204;8.570;2023-12-07T02:44:33;0.40;;;0.22;;
78426;SDS011;67722;50.204;8.570;2023-12-07T02:46:59;0.03;;;0.03;;
78426;SDS011;67722;50.204;8.570;2023-12-07T02:49:24;0.17;;;0.17;;
78426;SDS011;67722;50.204;8.570;2023-12-07T02:51:49;0.85;;;0.85;;
78426;SDS011;67722;50.204;8.570;2023-12-07T02:54:15;2.83;;;0.53;;
78426;SDS011;67722;50.204;8.570;2023-12-07T02:56:40;0.20;;;0.20;;
78426;SDS011;67722;50.204;8.570;2023-12-07T02:59:05;0.30;;;0.30;;
78426;SDS011;67722;50.204;8.570;2023-12-07T03:01:31;0.13;;;0.13;;
78426;SDS011;67722;50.204;8.570;2023-12-07T03:03:56;0.30;;;0.20;;
78426;SDS011;67722;50.204;8.570;2023-12-07T03:06:21;0.43;;;0.43;;
78426;SDS011;67722;50.204;8.570;2023-12-07T03:08:47;1.63;;;0.50;;
78426;SDS011;67722;50.204;8.570;2023-12-07T03:11:12;0.00;;;0.00;;
78426;SDS011;67722;50.204;8.570;2023-12-07T03:13:37;0.13;;;0.13;;
78426;SDS011;67722;50.204;8.570;2023-12-07T03:16:06;0.13;;;0.08;;
78426;SDS011;67722;50.204;8.570;2023-12-07T03:18:32;0.13;;;0.10;;
78426;SDS011;67722;50.204;8.570;2023-12-07T03:20:57;0.10;;;0.10;;
78426;SDS011;67722;50.204;8.570;2023-12-07T03:23:23;0.00;;;0.00;;
78426;SDS011;67722;50.204;8.570;2023-12-07T03:25:48;0.20;;;0.20;;
78426;SDS011;67722;50.204;8.570;2023-12-07T03:28:13;0.40;;;0.40;;
78426;SDS011;67722;50.204;8.570;2023-12-07T03:30:39;0.15;;;0.15;;
78426;SDS011;67722;50.204;8.570;2023-12-07T03:33:04;0.10;;;0.10;;
78426;SDS011;67722;50.204;8.570;2023-12-07T03:35:29;0.03;;;0.03;;
78426;SDS011;67722;50.204;8.570;2023-12-07T03:37:54;1.33;;;0.40;;
78426;SDS011;67722;50.204;8.570;2023-12-07T03:40:20;0.20;;;0.20;;
78426;SDS011;67722;50.204;8.570;2023-12-07T03:42:45;0.07;;;0.03;;
78426;SDS011;67722;50.204;8.570;2023-12-07T03:45:11;0.08;;;0.00;;
78426;SDS011;67722;50.204;8.570;2023-12-07T03:50:01;0.10;;;0.00;;
78426;SDS011;67722;50.204;8.570;2023-12-07T03:54:52;0.20;;;0.20;;
78426;SDS011;67722;50.204;8.570;2023-12-07T03:57:17;0.03;;;0.03;;
78426;SDS011;67722;50.204;8.570;2023-12-07T03:59:43;0.07;;;0.07;;
78426;SDS011;67722;50.204;8.570;2023-12-07T04:04:34;0.00;;;0.00;;
78426;SDS011;67722;50.204;8.570;2023-12-07T04:06:59;0.22;;;0.22;;
78426;SDS011;67722;50.204;8.570;2023-12-07T04:09:24;0.57;;;0.57;;
78426;SDS011;67722;50.204;8.570;2023-12-07T04:11:53;1.35;;;0.75;;
78426;SDS011;67722;50.204;8.570;2023-12-07T04:14:18;0.80;;;0.80;;
78426;SDS011;67722;50.204;8.570;2023-12-07T04:16:43;0.30;;;0.30;;
78426;SDS011;67722;50.204;8.570;2023-12-07T04:19:09;0.10;;;0.10;;
78426;SDS011;67722;50.204;8.570;2023-12-07T04:21:34;0.07;;;0.03;;
78426;SDS011;67722;50.204;8.570;2023-12-07T04:23:59;0.05;;;0.05;;
78426;SDS011;67722;50.204;8.570;2023-12-07T04:26:25;0.10;;;0.00;;
78426;SDS011;67722;50.204;8.570;2023-12-07T04:28:50;0.57;;;0.57;;
78426;SDS011;67722;50.204;8.570;2023-12-07T04:31:15;0.40;;;0.40;;
78426;SDS011;67722;50.204;8.570;2023-12-07T04:33:40;0.60;;;0.60;;
78426;SDS011;67722;50.204;8.570;2023-12-07T04:36:06;0.30;;;0.30;;
78426;SDS011;67722;50.204;8.570;2023-12-07T04:38:32;0.20;;;0.20;;
78426;SDS011;67722;50.204;8.570;2023-12-07T04:40:58;0.47;;;0.30;;
78426;SDS011;67722;50.204;8.570;2023-12-07T04:43:23;0.10;;;0.10;;
78426;SDS011;67722;50.204;8.570;2023-12-07T04:45:48;0.30;;;0.30;;
78426;SDS011;67722;50.204;8.570;2023-12-07T04:48:13;0.40;;;0.40;;
78426;SDS011;67722;50.204;8.570;2023-12-07T04:50:39;0.20;;;0.20;;
78426;SDS011;67722;50.204;8.570;2023-12-07T04:53:04;0.00;;;0.00;;
78426;SDS011;67722;50.204;8.570;2023-12-07T04:55:30;2.67;;;0.90;;
78426;SDS011;67722;50.204;8.570;2023-12-07T04:57:55;0.23;;;0.20;;
78426;SDS011;67722;50.204;8.570;2023-12-07T05:00:20;0.10;;;0.10;;
78426;SDS011;67722;50.204;8.570;2023-12-07T05:02:46;0.32;;;0.32;;
78426;SDS011;67722;50.204;8.570;2023-12-07T05:05:11;0.30;;;0.30;;
78426;SDS011;67722;50.204;8.570;2023-12-07T05:07:37;0.83;;;0.83;;
78426;SDS011;67722;50.204;8.570;2023-12-07T05:10:02;0.10;;;0.00;;
78426;SDS011;67722;50.204;8.570;2023-12-07T05:12:31;0.57;;;0.55;;
78426;SDS011;67722;50.204;8.570;2023-12-07T05:14:56;0.10;;;0.10;;
78426;SDS011;67722;50.204;8.570;2023-12-07T05:17:21;1.20;;;0.20;;
78426;SDS011;67722;50.204;8.570;2023-12-07T05:22:13;0.00;;;0.00;;
78426;SDS011;67722;50.204;8.570;2023-12-07T05:24:39;0.60;;;0.60;;
78426;SDS011;67722;50.204;8.570;2023-12-07T05:27:04;0.10;;;0.10;;
78426;SDS011;67722;50.204;8.570;2023-12-07T05:29:30;0.13;;;0.13;;
78426;SDS011;67722;50.204;8.570;2023-12-07T05:34:20;0.10;;;0.10;;
78426;SDS011;67722;50.204;8.570;2023-12-07T05:36:45;0.40;;;0.40;;
78426;SDS011;67722;50.204;8.570;2023-12-07T05:39:12;0.25;;;0.22;;
78426;SDS011;67722;50.204;8.570;2023-12-07T05:41:38;0.22;;;0.17;;
78426;SDS011;67722;50.204;8.570;2023-12-07T05:44:03;0.15;;;0.15;;
78426;SDS011;67722;50.204;8.570;2023-12-07T05:46:29;0.15;;;0.15;;
78426;SDS011;67722;50.204;8.570;2023-12-07T05:48:55;0.10;;;0.10;;
78426;SDS011;67722;50.204;8.570;2023-12-07T05:51:20;0.30;;;0.17;;
78426;SDS011;67722;50.204;8.570;2023-12-07T05:53:45;0.20;;;0.20;;
78426;SDS011;67722;50.204;8.570;2023-12-07T05:56:11;0.07;;;0.07;;
78426;SDS011;67722;50.204;8.570;2023-12-07T05:58:36;0.30;;;0.30;;
78426;SDS011;67722;50.204;8.570;2023-12-07T06:03:28;0.07;;;0.00;;
78426;SDS011;67722;50.204;8.570;2023-12-07T06:08:19;0.10;;;0.10;;
78426;SDS011;67722;50.204;8.570;2023-12-07T06:10:45;0.28;;;0.28;;
78426;SDS011;67722;50.204;8.570;2023-12-07T06:15:35;0.00;;;0.00;;
78426;SDS011;67722;50.204;8.570;2023-12-07T06:20:26;0.00;;;0.00;;
78426;SDS011;67722;50.204;8.570;2023-12-07T06:25:17;0.30;;;0.30;;
78426;SDS011;67722;50.204;8.570;2023-12-07T06:30:07;0.03;;;0.03;;
78426;SDS011;67722;50.204;8.570;2023-12-07T06:32:33;0.20;;;0.20;;
78426;SDS011;67722;50.204;8.570;2023-12-07T06:34:59;0.30;;;0.30;;
78426;SDS011;67722;50.204;8.570;2023-12-07T06:37:25;0.65;;;0.60;;
78426;SDS011;67722;50.204;8.570;2023-12-07T06:39:51;0.22;;;0.22;;
78426;SDS011;67722;50.204;8.570;2023-12-07T06:44:48;0.00;;;0.00;;
78426;SDS011;67722;50.204;8.570;2023-12-07T06:47:16;0.40;;;0.40;;
78426;SDS011;67722;50.204;8.570;2023-12-07T06:49:41;0.88;;;0.52;;
78426;SDS011;67722;50.204;8.570;2023-12-07T06:54:32;0.67;;;0.60;;
78426;SDS011;67722;50.204;8.570;2023-12-07T06:56:58;0.70;;;0.70;;
78426;SDS011;67722;50.204;8.570;2023-12-07T06:59:24;0.13;;;0.13;;
78426;SDS011;67722;50.204;8.570;2023-12-07T07:04:14;0.68;;;0.65;;
78426;SDS011;67722;50.204;8.570;2023-12-07T07:06:41;0.35;;;0.35;;
78426;SDS011;67722;50.204;8.570;2023-12-07T07:09:06;0.40;;;0.25;;
78426;SDS011;67722;50.204;8.570;2023-12-07T07:13:57;0.47;;;0.30;;
78426;SDS011;67722;50.204;8.570;2023-12-07T07:18:47;0.13;;;0.13;;
78426;SDS011;67722;50.204;8.570;2023-12-07T07:21:12;0.20;;;0.17;;
78426;SDS011;67722;50.204;8.570;2023-12-07T07:26:03;0.10;;;0.10;;
78426;SDS011;67722;50.204;8.570;2023-12-07T07:28:28;0.20;;;0.20;;
78426;SDS011;67722;50.204;8.570;2023-12-07T07:33:19;0.10;;;0.10;;
78426;SDS011;67722;50.204;8.570;2023-12-07T07:38:10;0.00;;;0.00;;
78426;SDS011;67722;50.204;8.570;2023-12-07T07:43:01;0.30;;;0.27;;
78426;SDS011;67722;50.204;8.570;2023-12-07T07:47:51;0.67;;;0.67;;
78426;SDS011;67722;50.204;8.570;2023-12-07T07:52:42;0.28;;;0.22;;
78426;SDS011;67722;50.204;8.570;2023-12-07T07:55:08;0.13;;;0.13;;
78426;SDS011;67722;50.204;8.570;2023-12-07T07:57:33;0.45;;;0.45;;
78426;SDS011;67722;50.204;8.570;2023-12-07T07:59:59;0.80;;;0.80;;
78426;SDS011;67722;50.204;8.570;2023-12-07T08:04:49;0.30;;;0.27;;
78426;SDS011;67722;50.204;8.570;2023-12-07T08:07:16;0.10;;;0.10;;
78426;SDS011;67722;50.204;8.570;2023-12-07T08:09:42;0.22;;;0.17;;
78426;SDS011;67722;50.204;8.570;2023-12-07T08:12:07;0.43;;;0.43;;
78426;SDS011;67722;50.204;8.570;2023-12-07T08:14:35;1.33;;;0.75;;
78426;SDS011;67722;50.204;8.570;2023-12-07T08:17:00;0.60;;;0.60;;
78426;SDS011;67722;50.204;8.570;2023-12-07T08:19:26;0.10;;;0.10;;
78426;SDS011;67722;50.204;8.570;2023-12-07T08:21:51;0.00;;;0.00;;
78426;SDS011;67722;50.204;8.570;2023-12-07T08:24:16;0.50;;;0.30;;
78426;SDS011;67722;50.204;8.570;2023-12-07T08:26:42;0.10;;;0.10;;
78426;SDS011;67722;50.204;8.570;2023-12-07T08:29:07;1.58;;;1.40;;
78426;SDS011;67722;50.204;8.570;2023-12-07T08:31:32;0.00;;;0.00;;
78426;SDS011;67722;50.204;8.570;2023-12-07T08:33:58;0.27;;;0.27;;
78426;SDS011;67722;50.204;8.570;2023-12-07T08:36:23;0.20;;;0.20;;
78426;SDS011;67722;50.204;8.570;2023-12-07T08:38:48;0.70;;;0.63;;
78426;SDS011;67722;50.204;8.570;2023-12-07T08:41:14;0.10;;;0.00;;
78426;SDS011;67722;50.204;8.570;2023-12-07T08:43:39;0.53;;;0.53;;
78426;SDS011;67722;50.204;8.570;2023-12-07T08:46:04;0.10;;;0.10;;
78426;SDS011;67722;50.204;8.570;2023-12-07T08:48:32;0.60;;;0.47;;
78426;SDS011;67722;50.204;8.570;2023-12-07T08:50:57;0.22;;;0.22;;
78426;SDS011;67722;50.204;8.570;2023-12-07T08:53:23;1.65;;;1.05;;
78426;SDS011;67722;50.204;8.570;2023-12-07T08:55:48;0.93;;;0.90;;
78426;SDS011;67722;50.204;8.570;2023-12-07T08:58:13;1.15;;;1.05;;
78426;SDS011;67722;50.204;8.570;2023-12-07T09:00:39;3.73;;;1.70;;
78426;SDS011;67722;50.204;8.570;2023-12-07T09:03:05;1.90;;;1.05;;
78426;SDS011;67722;50.204;8.570;2023-12-07T09:05:30;1.80;;;1.67;;
78426;SDS011;67722;50.204;8.570;2023-12-07T09:07:56;0.93;;;0.50;;
78426;SDS011;67722;50.204;8.570;2023-12-07T09:10:22;0.73;;;0.30;;
78426;SDS011;67722;50.204;8.570;2023-12-07T09:12:47;0.50;;;0.50;;
78426;SDS011;67722;50.204;8.570;2023-12-07T09:15:13;2.95;;;0.60;;
78426;SDS011;67722;50.204;8.570;2023-12-07T09:17:38;0.60;;;0.37;;
78426;SDS011;67722;50.204;8.570;2023-12-07T09:20:07;1.58;;;1.35;;
78426;SDS011;67722;50.204;8.570;2023-12-07T09:22:40;1.58;;;0.70;;
78426;SDS011;67722;50.204;8.570;2023-12-07T09:25:07;0.60;;;0.50;;
78426;SDS011;67722;50.204;8.570;2023-12-07T09:27:33;1.13;;;0.98;;
78426;SDS011;67722;50.204;8.570;2023-12-07T09:30:00;0.57;;;0.57;;
78426;SDS011;67722;50.204;8.570;2023-12-07T09:32:26;1.05;;;1.00;;
78426;SDS011;67722;50.204;8.570;2023-12-07T09:34:53;2.42;;;1.98;;
78426;SDS011;67722;50.204;8.570;2023-12-07T09:37:18;0.63;;;0.38;;
78426;SDS011;67722;50.204;8.570;2023-12-07T09:39:44;0.98;;;0.75;;
78426;SDS011;67722;50.204;8.570;2023-12-07T09:42:09;1.57;;;1.03;;
78426;SDS011;67722;50.204;8.570;2023-12-07T09:44:35;1.85;;;0.95;;
78426;SDS011;67722;50.204;8.570;2023-12-07T09:47:00;1.53;;;1.43;;
78426;SDS011;67722;50.204;8.570;2023-12-07T09:49:25;3.00;;;2.10;;
78426;SDS011;67722;50.204;8.570;2023-12-07T09:51:51;3.73;;;1.40;;
78426;SDS011;67722;50.204;8.570;2023-12-07T09:54:17;1.27;;;1.17;;
78426;SDS011;67722;50.204;8.570;2023-12-07T09:56:43;1.63;;;0.88;;
78426;SDS011;67722;50.204;8.570;2023-12-07T09:59:09;2.37;;;1.53;;
78426;SDS011;67722;50.204;8.570;2023-12-07T10:01:34;2.87;;;2.00;;
78426;SDS011;67722;50.204;8.570;2023-12-07T10:06:42;1.15;;;1.08;;
78426;SDS011;67722;50.204;8.570;2023-12-07T10:09:08;0.85;;;0.85;;
78426;SDS011;67722;50.204;8.570;2023-12-07T10:11:34;2.27;;;1.57;;
78426;SDS011;67722;50.204;8.570;2023-12-07T10:14:00;0.80;;;0.80;;
78426;SDS011;67722;50.204;8.570;2023-12-07T10:16:26;2.37;;;0.53;;
78426;SDS011;67722;50.204;8.570;2023-12-07T10:18:51;0.47;;;0.47;;
78426;SDS011;67722;50.204;8.570;2023-12-07T10:21:16;0.93;;;0.83;;
78426;SDS011;67722;50.204;8.570;2023-12-07T10:23:56;1.17;;;1.08;;
78426;SDS011;67722;50.204;8.570;2023-12-07T10:26:22;2.05;;;0.60;;
78426;SDS011;67722;50.204;8.570;2023-12-07T10:28:48;3.13;;;1.30;;
78426;SDS011;67722;50.204;8.570;2023-12-07T10:31:18;1.65;;;1.00;;
78426;SDS011;67722;50.204;8.570;2023-12-07T10:33:47;2.40;;;1.17;;
78426;SDS011;67722;50.204;8.570;2023-12-07T10:36:13;2.33;;;0.45;;
78426;SDS011;67722;50.204;8.570;2023-12-07T10:38:38;0.47;;;0.47;;
78426;SDS011;67722;50.204;8.570;2023-12-07T10:41:07;1.83;;;1.27;;
78426;SDS011;67722;50.204;8.570;2023-12-07T10:43:36;1.23;;;1.00;;
78426;SDS011;67722;50.204;8.570;2023-12-07T10:46:03;1.73;;;1.10;;
78426;SDS011;67722;50.204;8.570;2023-12-07T10:48:30;1.05;;;0.60;;
78426;SDS011;67722;50.204;8.570;2023-12-07T10:50:57;1.08;;;0.98;;
78426;SDS011;67722;50.204;8.570;2023-12-07T10:55:55;1.35;;;1.25;;
78426;SDS011;67722;50.204;8.570;2023-12-07T10:58:21;1.52;;;1.25;;
78426;SDS011;67722;50.204;8.570;2023-12-07T11:00:50;0.50;;;0.50;;
78426;SDS011;67722;50.204;8.570;2023-12-07T11:03:17;1.08;;;1.05;;
78426;SDS011;67722;50.204;8.570;2023-12-07T11:05:44;2.22;;;2.03;;
78426;SDS011;67722;50.204;8.570;2023-12-07T11:08:10;1.20;;;1.17;;
78426;SDS011;67722;50.204;8.570;2023-12-07T11:10:39;2.63;;;1.38;;
78426;SDS011;67722;50.204;8.570;2023-12-07T11:13:11;2.83;;;2.30;;
78426;SDS011;67722;50.204;8.570;2023-12-07T11:15:39;1.20;;;1.13;;
78426;SDS011;67722;50.204;8.570;2023-12-07T11:18:06;4.15;;;1.65;;
78426;SDS011;67722;50.204;8.570;2023-12-07T11:20:32;2.08;;;1.95;;
78426;SDS011;67722;50.204;8.570;2023-12-07T11:23:11;2.80;;;2.60;;
78426;SDS011;67722;50.204;8.570;2023-12-07T11:25:37;3.35;;;2.75;;
78426;SDS011;67722;50.204;8.570;2023-12-07T11:28:03;5.72;;;2.65;;
78426;SDS011;67722;50.204;8.570;2023-12-07T11:30:32;2.55;;;1.98;;
78426;SDS011;67722;50.204;8.570;2023-12-07T11:33:00;3.95;;;1.75;;
78426;SDS011;67722;50.204;8.570;2023-12-07T11:35:25;6.22;;;3.08;;
78426;SDS011;67722;50.204;8.570;2023-12-07T11:40:32;2.75;;;1.90;;
78426;SDS011;67722;50.204;8.570;2023-12-07T11:43:00;2.40;;;1.73;;
78426;SDS011;67722;50.204;8.570;2023-12-07T11:48:14;2.13;;;0.93;;
78426;SDS011;67722;50.204;8.570;2023-12-07T11:51:02;5.68;;;2.85;;
78426;SDS011;67722;50.204;8.570;2023-12-07T11:53:29;3.45;;;1.63;;
78426;SDS011;67722;50.204;8.570;2023-12-07T11:55:56;1.85;;;1.10;;
78426;SDS011;67722;50.204;8.570;2023-12-07T11:58:26;1.38;;;1.27;;
78426;SDS011;67722;50.204;8.570;2023-12-07T12:00:52;2.00;;;1.45;;
78426;SDS011;67722;50.204;8.570;2023-12-07T12:03:19;2.15;;;1.95;;
78426;SDS011;67722;50.204;8.570;2023-12-07T12:05:47;3.60;;;2.60;;
78426;SDS011;67722;50.204;8.570;2023-12-07T12:08:13;3.15;;;2.40;;
78426;SDS011;67722;50.204;8.570;2023-12-07T12:10:39;10.13;;;2.88;;
78426;SDS011;67722;50.204;8.570;2023-12-07T12:13:05;2.05;;;1.25;;
78426;SDS011;67722;50.204;8.570;2023-12-07T12:15:30;2.20;;;1.45;;
78426;SDS011;67722;50.204;8.570;2023-12-07T12:17:56;0.80;;;0.77;;
78426;SDS011;67722;50.204;8.570;2023-12-07T12:20:23;3.13;;;2.63;;
78426;SDS011;67722;50.204;8.570;2023-12-07T12:22:49;2.92;;;1.75;;
78426;SDS011;67722;50.204;8.570;2023-12-07T12:25:15;1.67;;;1.58;;
78426;SDS011;67722;50.204;8.570;2023-12-07T12:27:41;1.10;;;0.50;;
78426;SDS011;67722;50.204;8.570;2023-12-07T12:30:07;0.73;;;0.73;;
78426;SDS011;67722;50.204;8.570;2023-12-07T12:32:45;4.47;;;2.30;;
78426;SDS011;67722;50.204;8.570;2023-12-07T12:35:11;4.45;;;2.03;;
78426;SDS011;67722;50.204;8.570;2023-12-07T12:37:38;3.28;;;1.65;;
78426;SDS011;67722;50.204;8.570;2023-12-07T12:40:07;1.55;;;1.45;;
78426;SDS011;67722;50.204;8.570;2023-12-07T12:42:33;1.73;;;1.27;;
78426;SDS011;67722;50.204;8.570;2023-12-07T12:44:59;3.08;;;2.00;;
78426;SDS011;67722;50.204;8.570;2023-12-07T12:47:25;2.15;;;1.13;;
78426;SDS011;67722;50.204;8.570;2023-12-07T12:49:50;2.00;;;1.60;;
78426;SDS011;67722;50.204;8.570;2023-12-07T12:52:15;1.30;;;1.05;;
78426;SDS011;67722;50.204;8.570;2023-12-07T12:54:45;1.10;;;1.08;;
78426;SDS011;67722;50.204;8.570;2023-12-07T12:57:11;2.05;;;1.65;;
78426;SDS011;67722;50.204;8.570;2023-12-07T12:59:36;1.98;;;1.52;;
78426;SDS011;67722;50.204;8.570;2023-12-07T13:02:02;1.38;;;1.17;;
78426;SDS011;67722;50.204;8.570;2023-12-07T13:04:30;1.98;;;1.88;;
78426;SDS011;67722;50.204;8.570;2023-12-07T13:06:56;0.88;;;0.88;;
78426;SDS011;67722;50.204;8.570;2023-12-07T13:09:21;1.38;;;1.27;;
78426;SDS011;67722;50.204;8.570;2023-12-07T13:11:46;1.73;;;0.93;;
78426;SDS011;67722;50.204;8.570;2023-12-07T13:14:12;4.70;;;2.60;;
78426;SDS011;67722;50.204;8.570;2023-12-07T13:16:37;2.13;;;0.57;;
78426;SDS011;67722;50.204;8.570;2023-12-07T13:19:03;0.98;;;0.60;;
78426;SDS011;67722;50.204;8.570;2023-12-07T13:21:28;1.70;;;1.60;;
78426;SDS011;67722;50.204;8.570;2023-12-07T13:23:53;2.07;;;1.43;;
78426;SDS011;67722;50.204;8.570;2023-12-07T13:26:19;2.97;;;1.77;;
78426;SDS011;67722;50.204;8.570;2023-12-07T13:28:45;4.47;;;1.92;;
78426;SDS011;67722;50.204;8.570;2023-12-07T13:31:11;3.22;;;1.80;;
78426;SDS011;67722;50.204;8.570;2023-12-07T13:33:36;1.10;;;1.00;;
78426;SDS011;67722;50.204;8.570;2023-12-07T13:36:01;4.03;;;2.33;;
78426;SDS011;67722;50.204;8.570;2023-12-07T13:38:27;3.30;;;1.27;;
78426;SDS011;67722;50.204;8.570;2023-12-07T13:40:55;2.50;;;1.63;;
78426;SDS011;67722;50.204;8.570;2023-12-07T13:43:21;1.17;;;1.10;;
78426;SDS011;67722;50.204;8.570;2023-12-07T13:45:49;3.22;;;1.77;;
78426;SDS011;67722;50.204;8.570;2023-12-07T13:48:14;1.48;;;0.70;;
78426;SDS011;67722;50.204;8.570;2023-12-07T13:50:40;2.72;;;1.80;;
78426;SDS011;67722;50.204;8.570;2023-12-07T13:53:05;2.08;;;1.73;;
78426;SDS011;67722;50.204;8.570;2023-12-07T13:55:31;4.18;;;2.03;;
78426;SDS011;67722;50.204;8.570;2023-12-07T13:57:56;1.03;;;0.87;;
78426;SDS011;67722;50.204;8.570;2023-12-07T14:00:22;1.98;;;1.05;;
78426;SDS011;67722;50.204;8.570;2023-12-07T14:02:48;1.08;;;0.95;;
78426;SDS011;67722;50.204;8.570;2023-12-07T14:05:13;1.70;;;1.40;;
78426;SDS011;67722;50.204;8.570;2023-12-07T14:07:39;4.45;;;2.22;;
78426;SDS011;67722;50.204;8.570;2023-12-07T14:10:05;1.73;;;1.63;;
78426;SDS011;67722;50.204;8.570;2023-12-07T14:12:30;1.10;;;0.93;;
78426;SDS011;67722;50.204;8.570;2023-12-07T14:14:58;1.98;;;1.55;;
78426;SDS011;67722;50.204;8.570;2023-12-07T14:17:23;1.67;;;1.58;;
78426;SDS011;67722;50.204;8.570;2023-12-07T14:19:49;3.08;;;1.60;;
78426;SDS011;67722;50.204;8.570;2023-12-07T14:22:14;1.55;;;1.45;;
78426;SDS011;67722;50.204;8.570;2023-12-07T14:24:39;3.65;;;1.70;;
78426;SDS011;67722;50.204;8.570;2023-12-07T14:27:05;2.93;;;1.33;;
78426;SDS011;67722;50.204;8.570;2023-12-07T14:29:31;1.20;;;1.10;;
78426;SDS011;67722;50.204;8.570;2023-12-07T14:31:57;1.20;;;0.70;;
78426;SDS011;67722;50.204;8.570;2023-12-07T14:34:23;6.25;;;1.13;;
78426;SDS011;67722;50.204;8.570;2023-12-07T14:36:49;0.80;;;0.80;;
78426;SDS011;67722;50.204;8.570;2023-12-07T14:39:14;0.50;;;0.50;;
78426;SDS011;67722;50.204;8.570;2023-12-07T14:41:43;1.73;;;1.17;;
78426;SDS011;67722;50.204;8.570;2023-12-07T14:44:10;2.17;;;1.67;;
78426;SDS011;67722;50.204;8.570;2023-12-07T14:46:35;2.92;;;2.28;;
78426;SDS011;67722;50.204;8.570;2023-12-07T14:49:01;1.92;;;1.83;;
78426;SDS011;67722;50.204;8.570;2023-12-07T14:51:28;1.95;;;1.42;;
78426;SDS011;67722;50.204;8.570;2023-12-07T14:53:53;3.65;;;2.38;;
78426;SDS011;67722;50.204;8.570;2023-12-07T14:56:18;3.70;;;2.13;;
78426;SDS011;67722;50.204;8.570;2023-12-07T14:58:44;2.17;;;1.43;;
78426;SDS011;67722;50.204;8.570;2023-12-07T15:01:09;6.37;;;1.53;;
78426;SDS011;67722;50.204;8.570;2023-12-07T15:03:34;8.65;;;2.15;;
78426;SDS011;67722;50.204;8.570;2023-12-07T15:06:00;2.55;;;1.45;;
78426;SDS011;67722;50.204;8.570;2023-12-07T15:08:27;2.80;;;2.03;;
78426;SDS011;67722;50.204;8.570;2023-12-07T15:10:52;1.77;;;1.27;;
78426;SDS011;67722;50.204;8.570;2023-12-07T15:13:19;2.72;;;1.95;;
78426;SDS011;67722;50.204;8.570;2023-12-07T15:15:45;3.10;;;1.50;;
78426;SDS011;67722;50.204;8.570;2023-12-07T15:18:10;2.47;;;1.60;;
78426;SDS011;67722;50.204;8.570;2023-12-07T15:20:36;2.03;;;1.42;;
78426;SDS011;67722;50.204;8.570;2023-12-07T15:23:02;1.17;;;1.10;;
78426;SDS011;67722;50.204;8.570;2023-12-07T15:25:28;6.70;;;2.15;;
78426;SDS011;67722;50.204;8.570;2023-12-07T15:27:54;4.05;;;1.50;;
78426;SDS011;67722;50.204;8.570;2023-12-07T15:30:19;2.33;;;1.05;;
78426;SDS011;67722;50.204;8.570;2023-12-07T15:32:48;4.13;;;1.85;;
78426;SDS011;67722;50.204;8.570;2023-12-07T15:35:14;1.27;;;0.85;;
78426;SDS011;67722;50.204;8.570;2023-12-07T15:37:39;4.00;;;1.67;;
78426;SDS011;67722;50.204;8.570;2023-12-07T15:40:05;2.03;;;1.87;;
78426;SDS011;67722;50.204;8.570;2023-12-07T15:42:34;2.80;;;2.40;;
78426;SDS011;67722;50.204;8.570;2023-12-07T15:45:00;1.45;;;0.75;;
78426;SDS011;67722;50.204;8.570;2023-12-07T15:47:26;1.98;;;1.52;;